createdAt,value
2023-02-16T00:01:54.057Z,0.50
2023-02-16T00:04:26.343Z,0.80
2023-02-16T00:06:54.802Z,0.80
2023-02-16T00:09:25.018Z,1.33
2023-02-16T00:12:14.427Z,0.77
2023-02-16T00:14:42.211Z,0.70
2023-02-16T00:17:14.899Z,1.23
2023-02-16T00:19:43.721Z,1.90
2023-02-16T00:22:12.220Z,1.13
2023-02-16T00:24:40.054Z,1.40
2023-02-16T00:27:16.436Z,1.35
2023-02-16T00:29:45.826Z,1.42
2023-02-16T00:32:15.283Z,1.42
2023-02-16T00:34:43.497Z,1.70
2023-02-16T00:37:14.031Z,2.33
2023-02-16T00:39:42.487Z,1.40
2023-02-16T00:42:15.631Z,1.30
2023-02-16T00:44:47.858Z,1.42
2023-02-16T00:47:19.649Z,1.30
2023-02-16T00:49:48.589Z,1.23
2023-02-16T00:52:34.868Z,1.42
2023-02-16T00:55:05.888Z,1.35
2023-02-16T00:57:38.026Z,1.75
2023-02-16T01:00:14.834Z,2.10
2023-02-16T01:02:43.817Z,1.70
2023-02-16T01:05:13.873Z,2.33
2023-02-16T01:08:01.737Z,1.67
2023-02-16T01:10:47.715Z,2.28
2023-02-16T01:13:16.294Z,1.45
2023-02-16T01:15:44.788Z,1.83
2023-02-16T01:18:16.772Z,1.80
2023-02-16T01:20:45.578Z,1.45
2023-02-16T01:23:15.171Z,1.35
2023-02-16T01:25:43.236Z,1.75
2023-02-16T01:28:24.105Z,2.35
2023-02-16T01:30:53.591Z,2.05
2023-02-16T01:33:23.331Z,2.03
2023-02-16T01:35:52.204Z,1.98
2023-02-16T01:38:21.997Z,2.17
2023-02-16T01:40:56.123Z,2.33
2023-02-16T01:43:26.064Z,2.00
2023-02-16T01:46:15.176Z,1.92
2023-02-16T01:48:43.216Z,2.00
2023-02-16T01:51:27.653Z,2.42
2023-02-16T01:54:02.923Z,1.65
2023-02-16T01:56:34.909Z,1.77
2023-02-16T01:59:28.678Z,1.88
2023-02-16T02:01:59.646Z,1.73
2023-02-16T02:04:53.600Z,1.45
2023-02-16T02:07:28.883Z,2.00
2023-02-16T02:10:22.586Z,1.95
2023-02-16T02:12:53.363Z,2.08
2023-02-16T02:15:29.663Z,2.42
2023-02-16T02:17:57.939Z,2.40
2023-02-16T02:20:51.955Z,1.83
2023-02-16T02:23:35.133Z,1.58
2023-02-16T02:26:21.346Z,1.95
2023-02-16T02:29:16.073Z,2.03
2023-02-16T02:31:54.915Z,2.00
2023-02-16T02:34:28.651Z,2.25
2023-02-16T02:37:06.325Z,2.13
2023-02-16T02:39:52.661Z,1.92
2023-02-16T02:45:30.836Z,1.88
2023-02-16T02:47:59.901Z,1.90
2023-02-16T02:50:38.874Z,2.42
2023-02-16T02:53:10.942Z,2.58
2023-02-16T02:56:01.162Z,3.17
2023-02-16T02:58:55.080Z,3.13
2023-02-16T03:01:23.205Z,2.28
2023-02-16T03:03:56.330Z,2.53
2023-02-16T03:06:36.274Z,2.55
2023-02-16T03:09:10.751Z,2.88
2023-02-16T03:11:57.525Z,2.78
2023-02-16T03:14:38.805Z,2.65
2023-02-16T03:17:30.390Z,3.38
2023-02-16T03:20:17.382Z,3.28
2023-02-16T03:23:03.987Z,3.30
2023-02-16T03:25:51.661Z,3.13
2023-02-16T03:28:40.474Z,2.85
2023-02-16T03:31:10.604Z,3.08
2023-02-16T03:33:39.088Z,2.38
2023-02-16T03:36:08.163Z,2.70
2023-02-16T03:38:36.270Z,2.88
2023-02-16T03:41:05.787Z,2.15
2023-02-16T03:43:33.765Z,2.03
2023-02-16T03:46:01.947Z,2.15
2023-02-16T03:48:29.825Z,2.65
2023-02-16T03:50:58.657Z,3.17
2023-02-16T03:53:26.245Z,2.63
2023-02-16T03:55:53.830Z,2.22
2023-02-16T03:58:24.244Z,2.17
2023-02-16T04:00:52.876Z,2.05
2023-02-16T04:03:21.425Z,2.25
2023-02-16T04:05:52.098Z,3.50
2023-02-16T04:08:22.700Z,2.60
2023-02-16T04:10:50.760Z,2.33
2023-02-16T04:13:18.491Z,2.10
2023-02-16T04:15:46.539Z,1.92
2023-02-16T04:18:14.707Z,2.95
2023-02-16T04:20:42.454Z,2.17
2023-02-16T04:23:13.760Z,2.08
2023-02-16T04:25:41.961Z,1.85
2023-02-16T04:28:09.570Z,1.55
2023-02-16T04:30:37.985Z,2.05
2023-02-16T04:33:05.717Z,2.25
2023-02-16T04:35:33.231Z,1.90
2023-02-16T04:38:02.788Z,2.65
2023-02-16T04:40:30.529Z,2.40
2023-02-16T04:42:58.105Z,3.17
2023-02-16T04:45:25.616Z,2.03
2023-02-16T04:47:53.860Z,2.47
2023-02-16T04:50:21.611Z,2.08
2023-02-16T04:52:49.657Z,2.17
2023-02-16T04:55:17.618Z,2.90
2023-02-16T04:57:45.821Z,2.60
2023-02-16T05:00:13.894Z,1.98
2023-02-16T05:02:41.508Z,1.77
2023-02-16T05:05:09.837Z,2.38
2023-02-16T05:07:38.359Z,3.40
2023-02-16T05:10:06.524Z,2.50
2023-02-16T05:12:52.376Z,1.60
2023-02-16T05:15:20.105Z,2.35
2023-02-16T05:17:48.428Z,1.92
2023-02-16T05:20:15.998Z,1.75
2023-02-16T05:22:45.640Z,1.75
2023-02-16T05:25:13.507Z,3.10
2023-02-16T05:27:42.116Z,2.00
2023-02-16T05:30:10.284Z,1.90
2023-02-16T05:32:38.624Z,1.80
2023-02-16T05:35:06.535Z,2.08
2023-02-16T05:37:34.110Z,2.15
2023-02-16T05:40:01.694Z,2.15
2023-02-16T05:42:30.386Z,2.40
2023-02-16T05:44:58.069Z,1.98
2023-02-16T05:47:27.146Z,2.45
2023-02-16T05:49:55.501Z,1.38
2023-02-16T05:52:23.298Z,2.38
2023-02-16T05:54:50.840Z,2.15
2023-02-16T05:57:18.352Z,2.13
2023-02-16T05:59:47.206Z,1.25
2023-02-16T06:02:15.466Z,1.45
2023-02-16T06:04:43.308Z,1.92
2023-02-16T06:07:12.514Z,1.77
2023-02-16T06:09:41.750Z,2.25
2023-02-16T06:12:09.433Z,1.95
2023-02-16T06:14:37.033Z,1.60
2023-02-16T06:17:04.930Z,1.40
2023-02-16T06:19:34.016Z,2.25
2023-02-16T06:22:02.633Z,1.95
2023-02-16T06:24:31.303Z,1.77
2023-02-16T06:27:00.309Z,1.73
2023-02-16T06:29:30.966Z,1.60
2023-02-16T06:32:01.850Z,1.98
2023-02-16T06:34:30.256Z,1.42
2023-02-16T06:36:58.535Z,2.08
2023-02-16T06:39:26.037Z,2.15
2023-02-16T06:41:53.615Z,1.60
2023-02-16T06:44:21.381Z,1.98
2023-02-16T06:46:48.988Z,1.63
2023-02-16T06:49:19.648Z,1.70
2023-02-16T06:51:48.262Z,2.15
2023-02-16T06:54:16.069Z,1.52
2023-02-16T06:56:43.756Z,1.63
2023-02-16T06:59:13.401Z,2.08
2023-02-16T07:01:42.063Z,1.42
2023-02-16T07:04:12.322Z,1.35
2023-02-16T07:06:40.399Z,1.48
2023-02-16T07:09:10.115Z,1.35
2023-02-16T07:15:01.567Z,1.75
2023-02-16T07:17:30.136Z,2.58
2023-02-16T07:20:00.071Z,1.55
2023-02-16T07:22:27.686Z,1.67
2023-02-16T07:24:57.957Z,1.58
2023-02-16T07:27:26.896Z,1.40
2023-02-16T07:29:54.565Z,2.10
2023-02-16T07:32:22.736Z,1.55
2023-02-16T07:34:50.411Z,1.30
2023-02-16T07:37:18.839Z,1.33
2023-02-16T07:39:46.447Z,1.95
2023-02-16T07:42:13.970Z,1.38
2023-02-16T07:44:42.230Z,1.98
2023-02-16T07:47:10.009Z,1.00
2023-02-16T07:49:38.157Z,1.35
2023-02-16T07:52:06.018Z,1.38
2023-02-16T07:54:34.487Z,1.25
2023-02-16T07:57:02.083Z,1.10
2023-02-16T07:59:30.436Z,1.55
2023-02-16T08:01:58.218Z,1.60
2023-02-16T08:04:26.479Z,2.08
2023-02-16T08:06:54.336Z,2.53
2023-02-16T08:09:23.245Z,2.13
2023-02-16T08:11:50.804Z,1.05
2023-02-16T08:14:18.828Z,1.00
2023-02-16T08:16:46.394Z,1.40
2023-02-16T08:19:15.277Z,1.38
2023-02-16T08:21:42.906Z,1.17
2023-02-16T08:24:14.014Z,1.15
2023-02-16T08:26:43.786Z,1.17
2023-02-16T08:29:14.726Z,1.00
2023-02-16T08:31:42.650Z,1.17
2023-02-16T08:34:11.308Z,1.25
2023-02-16T08:36:42.004Z,1.20
2023-02-16T08:39:12.629Z,1.23
2023-02-16T08:41:40.184Z,1.45
2023-02-16T08:44:08.245Z,1.80
2023-02-16T08:46:36.540Z,1.67
2023-02-16T08:49:05.109Z,1.65
2023-02-16T08:51:38.709Z,1.77
2023-02-16T08:54:10.466Z,0.85
2023-02-16T08:56:38.677Z,1.50
2023-02-16T08:59:06.442Z,1.20
2023-02-16T09:01:33.978Z,1.48
2023-02-16T09:04:01.845Z,1.95
2023-02-16T09:06:30.870Z,1.52
2023-02-16T09:08:59.174Z,1.00
2023-02-16T09:11:26.908Z,0.90
2023-02-16T09:13:54.418Z,1.05
2023-02-16T09:16:26.072Z,1.13
2023-02-16T09:18:54.666Z,1.17
2023-02-16T09:21:29.049Z,1.35
2023-02-16T09:23:57.408Z,1.40
2023-02-16T09:26:27.338Z,1.55
2023-02-16T09:28:55.989Z,1.60
2023-02-16T09:31:29.644Z,1.63
2023-02-16T09:36:25.306Z,1.42
2023-02-16T09:38:53.716Z,1.98
2023-02-16T09:41:40.040Z,1.17
2023-02-16T09:44:27.814Z,1.25
2023-02-16T09:46:57.936Z,1.67
2023-02-16T09:49:26.574Z,1.88
2023-02-16T09:52:04.806Z,1.33
2023-02-16T09:54:55.159Z,1.23
2023-02-16T09:58:05.410Z,1.17
2023-02-16T10:00:38.520Z,1.25
2023-02-16T10:03:25.026Z,1.10
2023-02-16T10:06:11.347Z,0.90
2023-02-16T10:08:59.320Z,1.80
2023-02-16T10:11:42.803Z,0.90
2023-02-16T10:16:40.057Z,0.68
2023-02-16T10:19:16.541Z,0.70
2023-02-16T10:21:45.733Z,1.17
2023-02-16T10:24:14.259Z,1.20
2023-02-16T10:26:51.416Z,0.80
2023-02-16T10:29:22.816Z,0.60
2023-02-16T10:31:50.677Z,0.73
2023-02-16T10:34:23.200Z,0.55
2023-02-16T10:36:53.880Z,0.57
2023-02-16T10:39:24.703Z,0.47
2023-02-16T10:41:58.483Z,0.82
2023-02-16T10:44:34.264Z,0.60
2023-02-16T10:47:04.726Z,0.70
2023-02-16T10:49:33.070Z,0.65
2023-02-16T10:52:03.153Z,0.75
2023-02-16T10:54:32.227Z,0.70
2023-02-16T10:57:22.705Z,0.55
2023-02-16T10:59:50.607Z,0.80
2023-02-16T11:03:10.914Z,0.88
2023-02-16T11:05:39.932Z,0.80
2023-02-16T11:08:08.922Z,0.82
2023-02-16T11:10:38.562Z,0.60
2023-02-16T11:13:06.750Z,0.55
2023-02-16T11:15:36.153Z,0.73
2023-02-16T11:18:23.482Z,0.80
2023-02-16T11:20:55.289Z,0.57
2023-02-16T11:23:23.546Z,0.47
2023-02-16T11:26:04.424Z,0.95
2023-02-16T11:28:37.106Z,0.90
2023-02-16T11:31:11.187Z,0.75
2023-02-16T11:33:41.849Z,0.50
2023-02-16T11:36:25.468Z,0.95
2023-02-16T11:39:16.189Z,0.73
2023-02-16T11:41:52.124Z,1.63
2023-02-16T11:44:32.956Z,2.38
2023-02-16T11:47:01.749Z,0.80
2023-02-16T11:49:41.845Z,0.95
2023-02-16T11:52:24.932Z,0.93
2023-02-16T11:54:59.747Z,1.10
2023-02-16T11:57:29.833Z,1.20
2023-02-16T11:59:58.534Z,1.00
2023-02-16T12:02:36.459Z,0.98
2023-02-16T12:05:04.780Z,0.70
2023-02-16T12:07:49.979Z,0.82
2023-02-16T12:10:30.352Z,0.85
2023-02-16T12:13:22.378Z,1.08
2023-02-16T12:16:01.780Z,0.98
2023-02-16T12:19:01.302Z,0.73
2023-02-16T12:21:38.471Z,0.63
2023-02-16T12:24:31.560Z,1.35
2023-02-16T12:27:02.783Z,1.02
2023-02-16T12:29:45.763Z,1.17
2023-02-16T12:32:13.670Z,1.58
2023-02-16T12:35:01.236Z,1.08
2023-02-16T12:37:47.535Z,0.90
2023-02-16T12:40:39.341Z,2.90
2023-02-16T12:43:09.920Z,0.88
2023-02-16T12:45:39.746Z,0.70
2023-02-16T12:48:19.453Z,1.50
2023-02-16T12:50:48.227Z,1.90
2023-02-16T12:53:16.370Z,1.02
2023-02-16T12:55:48.792Z,1.58
2023-02-16T12:58:19.754Z,1.48
2023-02-16T13:00:51.405Z,1.42
2023-02-16T13:03:25.786Z,1.65
2023-02-16T13:06:12.704Z,2.05
2023-02-16T13:08:45.936Z,1.80
2023-02-16T13:11:31.420Z,1.10
2023-02-16T13:14:02.100Z,1.52
2023-02-16T13:16:52.575Z,3.08
2023-02-16T13:19:20.753Z,3.40
2023-02-16T13:21:52.035Z,0.95
2023-02-16T13:24:19.979Z,1.55
2023-02-16T13:26:51.961Z,1.92
2023-02-16T13:29:38.279Z,2.53
2023-02-16T13:32:25.293Z,1.30
2023-02-16T13:35:11.771Z,2.53
2023-02-16T13:38:00.209Z,4.18
2023-02-16T13:40:46.121Z,1.45
2023-02-16T13:43:16.353Z,1.55
2023-02-16T13:45:45.380Z,1.17
2023-02-16T13:48:17.351Z,1.95
2023-02-16T13:50:46.645Z,1.95
2023-02-16T13:53:22.424Z,1.00
2023-02-16T13:55:51.354Z,1.52
2023-02-16T13:58:22.460Z,2.00
2023-02-16T14:00:52.086Z,0.98
2023-02-16T14:03:22.812Z,1.98
2023-02-16T14:05:54.417Z,1.52
2023-02-16T14:08:23.208Z,3.20
2023-02-16T14:10:56.801Z,1.40
2023-02-16T14:13:53.735Z,1.40
2023-02-16T14:16:25.956Z,1.55
2023-02-16T14:19:01.836Z,1.88
2023-02-16T14:21:43.643Z,1.38
2023-02-16T14:24:31.286Z,1.33
2023-02-16T14:27:00.383Z,1.35
2023-02-16T14:29:29.734Z,1.00
2023-02-16T14:32:01.055Z,1.40
2023-02-16T14:34:30.780Z,1.30
2023-02-16T14:37:19.654Z,1.00
2023-02-16T14:40:07.062Z,1.35
2023-02-16T14:42:37.039Z,1.35
2023-02-16T14:45:07.694Z,1.98
2023-02-16T14:47:59.629Z,1.77
2023-02-16T14:50:31.070Z,2.63
2023-02-16T14:52:58.624Z,1.10
2023-02-16T14:55:44.787Z,2.42
2023-02-16T14:58:31.159Z,1.42
2023-02-16T15:01:05.053Z,1.35
2023-02-16T15:03:45.946Z,1.02
2023-02-16T15:06:19.051Z,1.60
2023-02-16T15:08:58.168Z,1.45
2023-02-16T15:11:34.078Z,1.48
2023-02-16T15:14:06.884Z,1.48
2023-02-16T15:16:34.675Z,0.95
2023-02-16T15:19:05.046Z,0.88
2023-02-16T15:21:34.518Z,1.42
2023-02-16T15:24:11.703Z,2.55
2023-02-16T15:26:40.387Z,1.05
2023-02-16T15:29:33.762Z,1.48
2023-02-16T15:32:07.046Z,0.85
2023-02-16T15:34:36.311Z,1.38
2023-02-16T15:37:20.618Z,1.00
2023-02-16T15:40:06.136Z,0.60
2023-02-16T15:42:37.226Z,0.73
2023-02-16T15:45:19.369Z,1.27
2023-02-16T15:47:47.917Z,1.00
2023-02-16T15:50:17.812Z,3.75
2023-02-16T15:52:45.378Z,1.30
2023-02-16T15:55:20.318Z,1.45
2023-02-16T15:57:48.249Z,1.40
2023-02-16T16:00:22.144Z,0.82
2023-02-16T16:02:51.676Z,0.70
2023-02-16T16:05:32.173Z,1.13
2023-02-16T16:08:02.299Z,0.90
2023-02-16T16:10:42.860Z,1.15
2023-02-16T16:13:28.190Z,0.93
2023-02-16T16:16:09.081Z,1.20
2023-02-16T16:18:47.794Z,0.98
2023-02-16T16:21:20.406Z,1.00
2023-02-16T16:23:59.614Z,0.70
2023-02-16T16:26:28.154Z,2.28
2023-02-16T16:28:56.748Z,0.95
2023-02-16T16:31:25.116Z,1.00
2023-02-16T16:33:55.675Z,0.82
2023-02-16T16:36:34.066Z,0.93
2023-02-16T16:39:12.678Z,1.00
2023-02-16T16:41:43.413Z,1.05
2023-02-16T16:44:28.756Z,1.00
2023-02-16T16:47:00.153Z,1.50
2023-02-16T16:49:30.970Z,1.27
2023-02-16T16:52:01.222Z,1.00
2023-02-16T16:54:41.396Z,1.10
2023-02-16T16:57:20.366Z,1.23
2023-02-16T16:59:48.043Z,1.15
2023-02-16T17:02:18.988Z,2.53
2023-02-16T17:04:50.416Z,1.27
2023-02-16T17:07:18.687Z,1.25
2023-02-16T17:09:46.409Z,1.27
2023-02-16T17:12:14.171Z,0.80
2023-02-16T17:14:41.974Z,1.13
2023-02-16T17:17:15.733Z,1.08
2023-02-16T17:19:43.554Z,1.63
2023-02-16T17:22:15.633Z,0.80
2023-02-16T17:24:43.638Z,1.52
2023-02-16T17:27:13.412Z,0.98
2023-02-16T17:29:43.531Z,0.88
2023-02-16T17:32:11.843Z,1.60
2023-02-16T17:34:39.451Z,1.70
2023-02-16T17:37:11.767Z,1.35
2023-02-16T17:39:40.141Z,0.90
2023-02-16T17:42:12.267Z,1.42
2023-02-16T17:44:40.579Z,1.08
2023-02-16T17:47:10.785Z,1.17
2023-02-16T17:49:41.186Z,0.98
2023-02-16T17:52:15.645Z,1.15
2023-02-16T17:54:43.520Z,0.82
2023-02-16T17:57:11.706Z,0.70
2023-02-16T17:59:41.976Z,0.70
2023-02-16T18:02:14.667Z,1.20
2023-02-16T18:04:42.339Z,1.10
2023-02-16T18:07:17.849Z,0.93
2023-02-16T18:09:45.427Z,0.70
2023-02-16T18:12:13.130Z,0.98
2023-02-16T18:14:41.346Z,1.48
2023-02-16T18:17:13.291Z,3.03
2023-02-16T18:19:41.076Z,1.63
2023-02-16T18:22:14.403Z,0.50
2023-02-16T18:24:46.657Z,1.67
2023-02-16T18:27:14.343Z,0.87
2023-02-16T18:29:43.384Z,2.03
2023-02-16T18:32:11.208Z,1.40
2023-02-16T18:34:39.447Z,1.02
2023-02-16T18:37:07.249Z,1.05
2023-02-16T18:39:34.820Z,1.30
2023-02-16T18:42:03.301Z,0.90
2023-02-16T18:44:31.385Z,1.00
2023-02-16T18:46:59.325Z,1.67
2023-02-16T18:54:52.768Z,2.50
2023-02-16T19:05:42.607Z,1.20
2023-02-16T19:08:42.278Z,1.38
2023-02-16T19:11:12.989Z,1.67
2023-02-16T19:22:09.461Z,2.35
2023-02-16T19:24:45.938Z,1.27
2023-02-16T19:27:13.934Z,1.13
2023-02-16T19:29:43.250Z,0.80
2023-02-16T19:32:14.225Z,1.08
2023-02-16T19:34:42.133Z,1.52
2023-02-16T20:06:47.527Z,1.70
2023-02-16T20:09:21.697Z,1.02
2023-02-16T20:14:19.834Z,2.83
2023-02-16T20:16:47.670Z,1.15
2023-02-16T20:19:19.170Z,1.48
2023-02-16T20:21:49.869Z,1.70
2023-02-16T20:24:20.714Z,3.67
2023-02-16T20:26:55.666Z,1.77
2023-02-16T20:29:27.112Z,2.05
2023-02-16T20:31:56.310Z,1.20
2023-02-16T20:34:24.873Z,1.00
2023-02-16T20:36:53.246Z,1.70
2023-02-16T20:39:21.071Z,1.67
2023-02-16T20:41:49.423Z,1.23
2023-02-16T20:44:23.188Z,2.88
2023-02-16T20:46:54.580Z,1.40
2023-02-16T20:49:26.086Z,1.10
2023-02-16T20:51:56.895Z,1.63
2023-02-16T20:54:28.191Z,1.45
2023-02-16T20:56:57.434Z,1.15
2023-02-16T20:59:25.434Z,0.85
2023-02-16T21:04:34.480Z,1.95
2023-02-16T21:07:03.546Z,1.02
2023-02-16T21:09:34.045Z,0.93
2023-02-16T21:12:03.120Z,1.33
2023-02-16T21:14:33.824Z,2.08
2023-02-16T21:17:02.921Z,2.50
2023-02-16T21:19:31.628Z,3.45
2023-02-16T21:22:01.355Z,3.00
2023-02-16T21:24:30.866Z,2.83
2023-02-16T21:27:00.102Z,3.88
2023-02-16T21:29:28.017Z,4.30
2023-02-16T21:31:58.099Z,2.65
2023-02-16T21:34:26.012Z,4.00
2023-02-16T21:36:53.960Z,3.60
2023-02-16T21:39:44.805Z,3.17
2023-02-16T21:42:12.710Z,5.05
2023-02-16T21:44:46.037Z,3.88
2023-02-16T21:47:46.043Z,3.47
2023-02-16T21:50:15.483Z,4.00
2023-02-16T21:52:43.454Z,3.70
2023-02-16T21:55:31.691Z,2.00
2023-02-16T21:57:59.699Z,1.90
2023-02-16T22:00:27.953Z,1.67
2023-02-16T22:02:55.783Z,1.77
2023-02-16T22:05:24.077Z,1.95
2023-02-16T22:07:51.803Z,2.33
2023-02-16T22:10:20.460Z,2.63
2023-02-16T22:12:48.180Z,1.27
2023-02-16T22:15:17.091Z,1.90
2023-02-16T22:17:44.864Z,1.50
2023-02-16T22:20:12.702Z,1.38
2023-02-16T22:22:40.706Z,1.55
2023-02-16T22:25:08.406Z,1.80
2023-02-16T22:27:36.428Z,1.35
2023-02-16T22:30:04.331Z,3.13
2023-02-16T22:32:34.546Z,2.22
2023-02-16T22:35:02.374Z,2.63
2023-02-16T22:37:30.111Z,1.85
2023-02-16T22:39:57.686Z,1.27
2023-02-16T22:42:25.472Z,1.48
2023-02-16T22:44:53.272Z,1.58
2023-02-16T22:47:21.095Z,1.75
2023-02-16T22:49:48.942Z,1.77
2023-02-16T22:52:16.757Z,1.20
2023-02-16T22:54:44.536Z,2.60
2023-02-16T22:57:14.081Z,1.25
2023-02-16T22:59:42.838Z,1.67
2023-02-16T23:02:10.363Z,2.30
2023-02-16T23:04:38.945Z,2.40
2023-02-16T23:07:06.418Z,2.25
2023-02-16T23:09:34.291Z,1.92
2023-02-16T23:12:01.871Z,2.20
2023-02-16T23:14:30.078Z,3.55
2023-02-16T23:16:58.470Z,2.92
2023-02-16T23:19:26.829Z,2.05
2023-02-16T23:21:57.092Z,2.47
2023-02-16T23:24:26.069Z,2.85
2023-02-16T23:26:54.465Z,2.80
2023-02-16T23:29:25.322Z,2.72
2023-02-16T23:31:54.329Z,3.33
2023-02-16T23:34:22.409Z,2.67
2023-02-16T23:36:50.319Z,3.08
2023-02-16T23:39:19.206Z,2.70
2023-02-16T23:41:47.112Z,2.90
2023-02-16T23:44:15.101Z,3.30
2023-02-16T23:46:43.148Z,4.20
2023-02-16T23:49:11.123Z,3.67
2023-02-16T23:51:41.197Z,2.42
2023-02-16T23:54:11.750Z,2.33
2023-02-16T23:56:41.658Z,2.60
2023-02-16T23:59:10.576Z,2.85
